Time;durP1;ratioP1;P1;durP2;ratioP2;P2;SDS_P1;SDS_P2;PMS_P1;PMS_P2;Temp;Humidity;BMP_temperature;BMP_pressure;BME280_temperature;BME280_humidity;BME280_pressure;Samples;Min_cycle;Max_cycle;Signal;HPM_P1;HPM_P2
2022/12/05 00:01:24;;;;;;;89.00;50.67;;;;;;;28.52;70.09;100805.97;5082495;27;70133;-33
2022/12/05 00:04:00;;;;;;;78.10;45.75;;;;;;;29.29;71.30;100927.97;5084744;27;65774;-34
2022/12/05 00:06:34;;;;;;;78.78;42.28;;;;;;;29.47;71.21;100957.03;5080695;27;70400;-34
2022/12/05 00:09:06;;;;;;;72.13;38.47;;;;;;;28.58;71.16;100800.78;5079856;27;66385;-34
2022/12/05 00:11:41;;;;;;;70.03;38.10;;;;;;;29.04;71.15;100862.13;5081502;27;67709;-33
2022/12/05 00:14:13;;;;;;;61.42;34.45;;;;;;;29.50;71.84;100934.19;5089011;27;65299;-33
2022/12/05 00:16:45;;;;;;;65.43;33.20;;;;;;;29.46;71.46;100928.38;5083454;27;69316;-34
2022/12/05 00:19:16;;;;;;;67.93;32.40;;;;;;;29.62;72.00;100959.53;5086609;27;66428;-35
2022/12/05 00:21:48;;;;;;;60.95;32.13;;;;;;;29.66;71.26;100963.50;5090477;27;68637;-36
2022/12/05 00:24:20;;;;;;;49.58;28.80;;;;;;;29.68;71.56;100958.72;5084432;27;67247;-34
2022/12/05 00:26:51;;;;;;;57.17;28.13;;;;;;;29.69;70.95;100954.16;5089418;27;70171;-38
2022/12/05 00:29:24;;;;;;;50.78;26.95;;;;;;;29.57;70.60;100935.84;5082505;27;65898;-34
2022/12/05 00:31:55;;;;;;;54.70;26.40;;;;;;;29.72;70.92;100962.66;5088351;27;71263;-38
2022/12/05 00:34:27;;;;;;;50.33;22.13;;;;;;;29.66;70.77;100950.00;5070239;27;66059;-34
2022/12/05 00:36:58;;;;;;;50.20;22.92;;;;;;;29.75;70.46;100964.94;5078838;27;69904;-35
2022/12/05 00:39:32;;;;;;;38.30;20.95;;;;;;;29.39;71.37;100917.56;5083985;27;43625;-35
2022/12/05 00:42:03;;;;;;;32.10;19.97;;;;;;;29.76;70.95;100974.72;5087761;27;69324;-35
2022/12/05 00:44:35;;;;;;;28.98;20.08;;;;;;;29.64;70.97;100956.66;5090883;27;66357;-34
2022/12/05 00:47:06;;;;;;;34.43;18.13;;;;;;;29.76;71.02;100982.84;5085780;27;69123;-34
2022/12/05 00:49:38;;;;;;;26.38;17.42;;;;;;;29.81;69.91;100988.47;5083942;27;65432;-36
2022/12/05 00:52:10;;;;;;;18.85;15.23;;;;;;;29.76;69.01;100982.00;5088631;27;70350;-35
2022/12/05 00:54:41;;;;;;;15.40;13.93;;;;;;;29.59;68.45;100965.38;5089696;27;66190;-34
2022/12/05 00:57:12;;;;;;;19.23;14.07;;;;;;;29.83;68.27;100996.34;5088139;27;70174;-34
2022/12/05 00:59:44;;;;;;;21.90;14.73;;;;;;;29.80;67.60;100983.25;5092338;27;65428;-34
2022/12/05 01:02:16;;;;;;;15.02;13.48;;;;;;;29.90;67.03;101004.47;5084776;27;69841;-35
2022/12/05 01:04:48;;;;;;;14.82;13.32;;;;;;;29.94;67.31;101005.69;5083792;27;66532;-35
2022/12/05 01:07:19;;;;;;;14.30;13.00;;;;;;;29.96;66.90;101014.44;5088271;27;70045;-35
2022/12/05 01:09:50;;;;;;;;;;;;;;;29.66;67.79;101025.69;5089244;27;65721;-35
2022/12/05 01:12:21;;;;;;;13.23;11.90;;;;;;;29.58;66.57;100969.91;5093543;27;70231;-35
2022/12/05 01:14:54;;;;;;;15.40;12.73;;;;;;;29.87;66.19;101010.28;5087243;27;66062;-35
2022/12/05 01:17:26;;;;;;;13.73;12.30;;;;;;;30.04;66.17;101043.97;5066642;27;69888;-35
2022/12/05 01:19:57;;;;;;;;;;;;;;;29.73;66.98;101053.56;5078462;27;65941;-34
2022/12/05 01:22:28;;;;;;;12.50;11.40;;;;;;;30.01;66.01;101049.78;5086940;27;69951;-36
2022/12/05 01:25:00;;;;;;;14.05;12.15;;;;;;;29.96;66.09;101030.66;5074848;27;65421;-34
2022/12/05 01:27:32;;;;;;;13.60;12.23;;;;;;;30.09;65.93;101046.00;5081638;27;69198;-35
2022/12/05 01:30:04;;;;;;;15.18;12.70;;;;;;;29.99;65.85;101025.66;5083333;27;67114;-35
2022/12/05 01:32:35;;;;;;;12.93;11.70;;;;;;;30.12;66.05;101041.03;5087552;27;69069;-34
2022/12/05 01:35:07;;;;;;;13.30;11.98;;;;;;;30.13;65.93;101048.09;5082795;27;66062;-34
2022/12/05 01:37:38;;;;;;;13.35;11.63;;;;;;;30.14;65.34;101049.75;5080392;27;70492;-34
2022/12/05 01:40:11;;;;;;;13.18;11.77;;;;;;;30.16;65.47;101042.25;5079078;27;66806;-35
2022/12/05 01:42:43;;;;;;;14.18;11.60;;;;;;;30.19;65.02;101046.41;5078201;27;68228;-34
2022/12/05 01:45:31;;;;;;;12.70;11.53;;;;;;;30.08;64.90;101023.53;5078286;27;66348;-35
2022/12/05 01:48:08;;;;;;;13.57;12.00;;;;;;;29.70;65.07;100967.47;5087900;27;69746;-34
2022/12/05 01:50:40;;;;;;;13.50;11.13;;;;;;;30.11;65.25;101031.25;5086718;27;66230;-37
2022/12/05 01:53:11;;;;;;;;;;;;;;;29.90;66.45;101053.97;5078275;27;69448;-36
2022/12/05 01:55:46;;;;;;;12.23;11.10;;;;;;;30.19;65.43;101054.53;5074348;27;66424;-35
2022/12/05 01:58:18;;;;;;;16.50;10.82;;;;;;;30.20;64.73;101046.22;5074941;27;70369;-36
2022/12/05 02:00:50;;;;;;;11.43;10.43;;;;;;;30.25;65.09;101046.44;5081362;27;66465;-35
2022/12/05 02:03:22;;;;;;;11.30;10.38;;;;;;;30.20;64.89;101038.09;5079143;27;70422;-34
2022/12/05 02:05:56;;;;;;;11.63;10.57;;;;;;;30.26;64.58;101053.50;5077980;27;65721;-36
2022/12/05 02:08:28;;;;;;;11.10;10.00;;;;;;;30.30;64.50;101053.91;5076090;27;70481;-35
2022/12/05 02:11:00;;;;;;;11.55;10.18;;;;;;;30.17;64.48;101038.53;5083575;27;65950;-35
2022/12/05 02:13:58;;;;;;;18.30;9.73;;;;;;;29.75;64.35;100978.47;5078966;27;69995;-36
2022/12/05 02:16:39;;;;;;;10.60;9.75;;;;;;;30.33;64.06;101063.50;5077253;27;66982;-34
2022/12/05 02:19:47;;;;;;;12.00;9.77;;;;;;;30.25;64.84;101065.38;5077220;27;70528;-34
2022/12/05 02:22:49;;;;;;;11.02;10.13;;;;;;;30.30;64.17;101064.75;5074059;27;66768;-34
2022/12/05 02:25:36;;;;;;;9.90;9.20;;;;;;;30.36;64.39;101063.06;5074642;27;70425;-35
2022/12/05 02:28:27;;;;;;;9.63;8.60;;;;;;;30.36;64.25;101063.06;5076150;27;66437;-35
2022/12/05 02:31:17;;;;;;;10.00;9.15;;;;;;;30.37;64.28;101065.56;5075786;27;70015;-35
2022/12/05 02:34:06;;;;;;;10.27;9.35;;;;;;;30.23;64.04;101048.53;5082907;27;66823;-35
2022/12/05 02:36:47;;;;;;;9.07;8.35;;;;;;;30.43;63.66;101063.88;5079699;27;70106;-34
2022/12/05 02:39:47;;;;;;;10.40;9.27;;;;;;;30.41;64.21;101060.56;5085872;27;65974;-36
2022/12/05 02:42:57;;;;;;;9.57;8.82;;;;;;;29.81;63.64;100968.66;5084092;27;70746;-36
2022/12/05 02:45:31;;;;;;;9.20;8.45;;;;;;;30.47;63.92;101048.88;5076150;27;65364;-35
2022/12/05 02:48:05;;;;;;;8.88;8.27;;;;;;;30.30;63.37;101016.03;5054776;27;70307;-35
2022/12/05 02:50:40;;;;;;;9.27;8.48;;;;;;;30.51;63.87;101044.69;5080661;27;66217;-36
2022/12/05 02:53:15;;;;;;;9.73;8.93;;;;;;;30.54;63.72;101044.28;5049420;27;70132;-35
2022/12/05 02:55:48;;;;;;;9.38;8.60;;;;;;;30.51;63.61;101039.28;5053254;27;65669;-36
2022/12/05 02:58:43;;;;;;;9.10;8.32;;;;;;;30.47;63.20;101040.75;5083822;27;69039;-35
2022/12/05 03:01:15;;;;;;;8.63;7.93;;;;;;;30.53;63.46;101039.88;5033268;27;65392;-35
2022/12/05 03:03:48;;;;;;;9.32;8.65;;;;;;;30.49;63.36;101019.72;5062323;28;70373;-36
2022/12/05 03:06:23;;;;;;;;;;;;;;;30.29;63.88;101036.03;5067011;27;66346;-35
2022/12/05 03:09:04;;;;;;;9.32;8.52;;;;;;;30.17;62.86;100967.34;5060745;28;70102;-36
2022/12/05 03:11:46;;;;;;;11.25;8.70;;;;;;;30.11;62.79;100950.06;5069013;27;66634;-36
2022/12/05 03:14:26;;;;;;;9.63;8.77;;;;;;;30.66;62.90;101039.84;5081624;27;70293;-36
2022/12/05 03:17:05;;;;;;;8.65;8.10;;;;;;;30.12;62.41;100937.41;5059407;27;65112;-35
2022/12/05 03:19:57;;;;;;;9.45;8.48;;;;;;;30.64;62.27;101028.38;5057870;27;70649;-38
2022/12/05 03:23:15;;;;;;;8.10;7.50;;;;;;;30.55;62.79;101024.25;5044630;27;65748;-35
2022/12/05 03:26:13;;;;;;;8.32;7.72;;;;;;;30.72;62.61;101017.31;5018941;28;68999;-34
2022/12/05 03:28:56;;;;;;;9.20;7.85;;;;;;;30.76;62.53;101014.16;5076488;27;66360;-35
2022/12/05 03:32:04;;;;;;;8.50;7.88;;;;;;;30.67;62.32;101009.03;5080030;27;70434;-38
2022/12/05 03:34:48;;;;;;;9.40;8.05;;;;;;;30.77;62.24;101007.72;5025374;27;65775;-36
2022/12/05 03:37:49;;;;;;;11.05;7.68;;;;;;;30.71;62.28;100991.28;5089577;27;70153;-35
2022/12/05 03:40:30;;;;;;;8.60;7.60;;;;;;;30.57;61.73;100940.97;5083074;27;65808;-34
2022/12/05 03:43:14;;;;;;;8.63;7.95;;;;;;;30.80;61.95;100980.22;5078542;27;70895;-36
2022/12/05 03:46:02;;;;;;;7.75;7.15;;;;;;;30.36;61.76;100903.38;5083028;27;65635;-33
2022/12/05 03:48:52;;;;;;;8.85;8.05;;;;;;;30.87;61.65;100975.59;5078299;27;70454;-35
2022/12/05 03:51:32;;;;;;;8.30;7.70;;;;;;;30.96;61.80;100977.00;5084024;27;66016;-34
2022/12/05 03:54:18;;;;;;;7.50;7.00;;;;;;;30.44;61.76;100871.47;5079408;27;70777;-34
2022/12/05 03:57:19;;;;;;;8.85;7.95;;;;;;;30.92;61.64;100959.50;5072989;27;66340;-34
2022/12/05 04:00:14;;;;;;;8.50;7.82;;;;;;;30.90;61.21;100957.03;5071133;27;70419;-35
2022/12/05 04:03:02;;;;;;;8.35;7.55;;;;;;;31.04;61.77;100955.06;5076604;27;65738;-36
2022/12/05 04:05:59;;;;;;;8.60;7.90;;;;;;;31.07;61.42;100951.91;5073413;27;70642;-35
2022/12/05 04:08:39;;;;;;;8.00;7.30;;;;;;;30.59;61.15;100860.38;5077900;27;65722;-34
2022/12/05 04:11:22;;;;;;;7.68;7.07;;;;;;;30.86;60.88;100896.22;5077524;27;70098;-36
2022/12/05 04:14:13;;;;;;;7.78;7.13;;;;;;;31.04;60.95;100919.84;5073764;27;65616;-36
2022/12/05 04:17:02;;;;;;;8.38;7.28;;;;;;;31.14;61.07;100932.88;5077076;27;69889;-37
2022/12/05 04:22:37;;;;;;;7.72;7.13;;;;;;;31.22;61.16;100923.66;5084981;27;69435;-37
2022/12/05 04:28:02;;;;;;;7.70;6.90;;;;;;;31.26;60.90;100914.88;5076496;27;69457;-36
2022/12/05 04:31:02;;;;;;;10.73;7.77;;;;;;;31.18;61.23;100904.31;5078929;27;65439;-35
2022/12/05 04:34:09;;;;;;;10.18;7.75;;;;;;;31.14;61.31;100903.91;5076784;27;69568;-35
2022/12/05 04:36:59;;;;;;;13.93;8.32;;;;;;;31.25;60.61;100901.53;5042176;27;66460;-34
2022/12/05 04:39:48;;;;;;;9.48;7.60;;;;;;;31.06;60.95;100863.53;5073461;27;69996;-34
2022/12/05 04:42:26;;;;;;;9.95;7.03;;;;;;;31.20;60.57;100880.50;5073370;27;66013;-35
2022/12/05 04:45:07;;;;;;;8.20;7.30;;;;;;;31.14;60.74;100857.84;5084844;27;69203;-35
2022/12/05 04:47:44;;;;;;;7.90;7.25;;;;;;;31.35;60.99;100894.56;5084609;27;66448;-37
2022/12/05 04:50:17;;;;;;;12.85;8.05;;;;;;;31.20;61.19;100852.59;5085417;27;69511;-34
2022/12/05 04:52:52;;;;;;;12.57;7.25;;;;;;;31.36;61.04;100868.31;5074256;27;67177;-37
2022/12/05 04:55:26;;;;;;;8.15;7.20;;;;;;;31.39;60.69;100868.69;5089935;27;69841;-35
2022/12/05 04:58:02;;;;;;;14.13;7.15;;;;;;;31.38;60.71;100867.03;5083338;27;66620;-35
2022/12/05 05:00:45;;;;;;;9.35;7.72;;;;;;;31.30;60.44;100848.31;5089775;27;69665;-36
2022/12/05 05:03:33;;;;;;;10.18;7.45;;;;;;;31.43;60.89;100863.66;5079995;27;66330;-36
2022/12/05 05:06:06;;;;;;;9.15;7.03;;;;;;;31.44;60.32;100849.03;5078931;27;68927;-36
2022/12/05 05:08:48;;;;;;;8.02;7.30;;;;;;;31.45;60.11;100849.88;5080738;27;67897;-36
2022/12/05 05:11:20;;;;;;;8.23;7.43;;;;;;;30.98;60.66;100769.03;5084484;27;69233;-35
2022/12/05 05:13:53;;;;;;;10.35;6.93;;;;;;;31.43;60.63;100836.56;5082486;27;65792;-35
2022/12/05 05:16:28;;;;;;;7.57;6.85;;;;;;;31.54;60.90;100848.53;5080624;27;71523;-36
2022/12/05 05:18:59;;;;;;;10.05;6.97;;;;;;;31.56;60.88;100840.97;5062174;27;66066;-36
2022/12/05 05:21:37;;;;;;;9.10;7.07;;;;;;;30.66;61.00;100690.56;5085733;27;68985;-36
2022/12/05 05:24:10;;;;;;;9.00;6.82;;;;;;;31.08;61.17;100758.50;5085067;27;65914;-37
2022/12/05 05:26:43;;;;;;;8.15;6.68;;;;;;;31.61;61.17;100844.66;5069076;28;69814;-38
2022/12/05 05:29:15;;;;;;;8.77;7.00;;;;;;;31.62;61.75;100834.66;5081470;27;66431;-37
2022/12/05 05:31:46;;;;;;;8.32;6.72;;;;;;;31.29;61.37;100775.38;5078679;27;69615;-34
2022/12/05 05:34:17;;;;;;;9.60;7.03;;;;;;;31.54;61.60;100805.97;5078410;27;66107;-38
2022/12/05 05:36:51;;;;;;;7.10;6.50;;;;;;;31.61;61.83;100806.72;5087548;27;69434;-39
2022/12/05 05:39:23;;;;;;;15.55;6.28;;;;;;;31.49;61.89;100781.44;5082203;27;66220;-36
2022/12/05 05:41:54;;;;;;;;;;;;;;;31.34;62.79;100808.03;5088300;27;69577;-35
2022/12/05 05:44:25;;;;;;;7.32;6.63;;;;;;;31.58;61.77;100795.50;5093250;27;67410;-35
2022/12/05 05:46:56;;;;;;;10.27;6.50;;;;;;;31.64;61.95;100783.72;5087571;27;69056;-38
2022/12/05 05:49:28;;;;;;;9.35;6.47;;;;;;;31.66;61.75;100780.81;5086826;27;64738;-37
2022/12/05 05:52:00;;;;;;;7.07;6.38;;;;;;;31.61;61.78;100774.16;5092995;27;69891;-36
2022/12/05 05:54:31;;;;;;;7.20;6.50;;;;;;;31.61;62.20;100763.31;5084043;27;65991;-36
2022/12/05 05:57:02;;;;;;;9.48;6.40;;;;;;;31.62;62.02;100753.31;5083865;27;70901;-34
2022/12/05 05:59:33;;;;;;;6.82;6.00;;;;;;;31.69;62.06;100754.06;5074489;27;66180;-36
2022/12/05 06:02:05;;;;;;;9.05;5.78;;;;;;;31.72;61.98;100748.16;5081721;27;70384;-40
2022/12/05 06:04:36;;;;;;;7.03;6.17;;;;;;;31.75;62.25;100747.72;5074553;27;66824;-35
2022/12/05 06:07:07;;;;;;;7.50;6.07;;;;;;;31.76;62.17;100737.69;5072613;27;70016;-35
2022/12/05 06:09:38;;;;;;;7.27;6.13;;;;;;;31.70;62.12;100719.63;5082513;27;66416;-37
2022/12/05 06:12:09;;;;;;;5.83;5.23;;;;;;;31.82;62.18;100728.66;5079480;27;71027;-36
2022/12/05 06:14:40;;;;;;;5.30;4.87;;;;;;;31.78;62.35;100706.56;5082374;27;65271;-36
2022/12/05 06:17:12;;;;;;;10.13;5.73;;;;;;;31.81;61.89;100714.22;5080538;27;69715;-34
2022/12/05 06:19:43;;;;;;;8.47;5.97;;;;;;;31.87;61.94;100706.25;5084214;27;66647;-34
2022/12/05 06:22:14;;;;;;;6.13;5.63;;;;;;;31.88;62.26;100713.34;5088648;27;70232;-35
2022/12/05 06:24:46;;;;;;;6.10;5.55;;;;;;;31.87;62.04;100704.34;5075258;27;66083;-40
2022/12/05 06:27:17;;;;;;;7.50;5.18;;;;;;;31.85;62.14;100692.09;5079588;27;69541;-38
2022/12/05 06:29:48;;;;;;;5.22;4.80;;;;;;;31.90;62.08;100684.91;5080694;27;66687;-35
2022/12/05 06:32:19;;;;;;;5.43;5.00;;;;;;;31.95;62.04;100681.53;5077921;27;71485;-36
2022/12/05 06:34:50;;;;;;;6.30;4.93;;;;;;;32.00;61.91;100676.22;5080418;27;66129;-35
2022/12/05 06:37:21;;;;;;;5.70;5.20;;;;;;;32.00;62.13;100671.63;5085396;27;70332;-36
2022/12/05 06:39:52;;;;;;;6.63;4.97;;;;;;;32.01;61.88;100669.72;5079570;27;65772;-35
2022/12/05 06:42:24;;;;;;;5.35;4.85;;;;;;;32.00;61.78;100663.50;5075831;27;69712;-37
2022/12/05 06:44:55;;;;;;;6.33;4.57;;;;;;;32.01;61.78;100653.47;5071309;27;66738;-38
2022/12/05 06:47:26;;;;;;;6.30;5.37;;;;;;;32.02;62.10;100649.69;5083711;27;70472;-34
2022/12/05 06:49:58;;;;;;;8.05;5.03;;;;;;;32.07;61.87;100654.41;5070371;27;65508;-34
2022/12/05 06:52:29;;;;;;;6.27;4.80;;;;;;;32.12;61.37;100651.81;5078492;27;71113;-35
2022/12/05 06:55:00;;;;;;;6.90;4.80;;;;;;;32.15;61.47;100643.22;5084631;27;65437;-37
2022/12/05 06:57:32;;;;;;;10.88;5.07;;;;;;;32.16;62.01;100628.59;5078382;27;70550;-34
2022/12/05 07:02:54;;;;;;;11.27;5.25;;;;;;;32.09;61.59;100608.88;5076754;27;70115;-35
2022/12/05 07:05:25;;;;;;;8.00;4.82;;;;;;;32.08;61.46;100604.53;5086344;27;65606;-33
2022/12/05 07:07:56;;;;;;;17.90;5.57;;;;;;;32.19;61.84;100611.84;5079110;27;70444;-35
2022/12/05 07:10:27;;;;;;;12.65;5.07;;;;;;;32.24;61.90;100615.50;5078329;27;65329;-35
2022/12/05 07:12:58;;;;;;;10.23;4.95;;;;;;;32.19;61.65;100607.25;5076247;27;70851;-34
2022/12/05 07:15:29;;;;;;;6.07;4.87;;;;;;;32.30;61.64;100621.88;5083285;27;66837;-35
2022/12/05 07:18:01;;;;;;;8.60;4.73;;;;;;;32.30;61.74;100613.72;5078140;27;70176;-34
2022/12/05 07:20:32;;;;;;;13.60;4.70;;;;;;;32.33;61.50;100596.97;5050706;28;66490;-36
2022/12/05 07:23:23;;;;;;;6.78;4.90;;;;;;;32.35;61.53;100597.56;5079024;27;70772;-35
2022/12/05 07:25:56;;;;;;;5.03;4.47;;;;;;;32.38;61.63;100588.94;5077331;27;66471;-37
2022/12/05 07:28:28;;;;;;;13.90;4.88;;;;;;;32.40;61.63;100586.81;5074087;27;70228;-36
2022/12/05 07:31:05;;;;;;;9.20;5.07;;;;;;;32.01;61.54;100512.38;5075174;27;66102;-33
2022/12/05 07:33:36;;;;;;;6.43;4.25;;;;;;;32.45;61.59;100567.09;5079315;27;69328;-34
2022/12/05 07:36:14;;;;;;;8.02;4.80;;;;;;;31.98;61.53;100489.28;5087142;27;64850;-36
2022/12/05 07:38:45;;;;;;;7.47;4.90;;;;;;;32.53;60.98;100569.47;5079983;27;69079;-34
2022/12/05 07:41:22;;;;;;;12.32;5.05;;;;;;;32.57;61.13;100569.81;5070177;27;65762;-36
2022/12/05 07:43:55;;;;;;;8.48;4.72;;;;;;;32.59;61.06;100576.66;5079353;27;69056;-36
2022/12/05 07:46:28;;;;;;;7.30;4.50;;;;;;;32.60;61.74;100561.22;5084311;27;66229;-34
2022/12/05 07:48:59;;;;;;;7.85;4.32;;;;;;;32.65;61.35;100562.13;5081819;27;69730;-37
2022/12/05 07:51:31;;;;;;;15.70;4.43;;;;;;;32.68;61.43;100555.38;5088278;27;66113;-35
2022/12/05 07:54:03;;;;;;;11.23;5.20;;;;;;;32.71;61.06;100565.78;5051415;27;69934;-35
2022/12/05 07:56:34;;;;;;;9.73;4.82;;;;;;;32.75;61.04;100555.25;5078469;27;65440;-35
2022/12/05 07:59:05;;;;;;;;;;;;;;;32.51;61.66;100557.19;5082454;27;69613;-34
2022/12/05 08:01:36;;;;;;;10.82;4.63;;;;;;;32.80;61.12;100561.63;5076397;27;66195;-34
2022/12/05 08:04:08;;;;;;;12.75;5.13;;;;;;;32.85;60.84;100561.72;5081202;27;70491;-35
2022/12/05 08:06:44;;;;;;;13.63;5.00;;;;;;;32.85;60.86;100550.84;5090233;27;65804;-35
2022/12/05 08:09:15;;;;;;;13.73;4.80;;;;;;;32.89;60.83;100552.00;5094150;27;69875;-35
2022/12/05 08:11:47;;;;;;;9.57;4.72;;;;;;;32.93;60.73;100564.06;5077283;27;66073;-35
2022/12/05 08:14:21;;;;;;;8.70;4.70;;;;;;;33.00;60.56;100557.69;5089365;27;69998;-35
2022/12/05 08:16:52;;;;;;;6.82;4.60;;;;;;;32.87;60.53;100539.72;5089686;27;65603;-35
2022/12/05 08:19:24;;;;;;;9.57;4.10;;;;;;;33.03;60.49;100568.06;5076575;27;69943;-36
2022/12/05 08:21:55;;;;;;;9.80;5.05;;;;;;;33.02;60.37;100559.09;5082430;27;65283;-36
2022/12/05 08:24:26;;;;;;;19.70;5.20;;;;;;;33.10;60.13;100563.31;5077764;27;70218;-35
2022/12/05 08:26:57;;;;;;;7.88;4.38;;;;;;;33.14;60.14;100559.03;5078243;27;66486;-36
2022/12/05 08:29:28;;;;;;;6.40;4.72;;;;;;;33.19;60.35;100561.03;5083084;27;69118;-34
2022/12/05 08:32:00;;;;;;;9.83;4.67;;;;;;;33.23;60.05;100567.63;5078800;27;66282;-35
2022/12/05 08:34:31;;;;;;;13.75;5.07;;;;;;;33.24;59.83;100559.22;5077093;27;69311;-36
2022/12/05 08:37:02;;;;;;;8.93;4.68;;;;;;;33.21;60.20;100550.72;5074349;27;66401;-36
2022/12/05 08:39:35;;;;;;;8.48;5.07;;;;;;;33.23;59.83;100556.75;5074470;27;70224;-35
2022/12/05 08:42:07;;;;;;;6.57;4.93;;;;;;;33.34;59.88;100570.25;5082598;27;66063;-35
2022/12/05 08:44:38;;;;;;;12.13;4.77;;;;;;;33.37;59.87;100560.78;5077838;27;70812;-35
2022/12/05 08:47:09;;;;;;;7.37;4.87;;;;;;;33.42;59.75;100560.06;5078701;27;66714;-35
2022/12/05 08:49:40;;;;;;;;;;;;;;;33.21;60.13;100559.72;5079173;27;70810;-35
2022/12/05 08:52:11;;;;;;;7.32;4.20;;;;;;;33.37;59.57;100548.03;5078210;27;66130;-36
2022/12/05 08:54:42;;;;;;;11.07;4.57;;;;;;;33.38;59.75;100549.69;5078880;27;71209;-35
2022/12/05 08:57:13;;;;;;;9.87;4.63;;;;;;;33.50;59.54;100565.09;5077341;27;66336;-35
2022/12/05 08:59:45;;;;;;;12.90;4.30;;;;;;;33.39;59.35;100539.63;5075179;27;71477;-36
2022/12/05 09:02:16;;;;;;;12.73;4.70;;;;;;;33.54;59.27;100563.56;5076907;27;66090;-37
2022/12/05 09:04:50;;;;;;;18.75;5.03;;;;;;;33.19;59.50;100499.34;5077415;27;70313;-35
2022/12/05 09:07:22;;;;;;;17.52;4.72;;;;;;;33.61;59.52;100564.25;5072724;27;65814;-34
2022/12/05 09:09:54;;;;;;;23.13;5.32;;;;;;;33.62;59.32;100560.44;5079674;27;69940;-36
2022/12/05 09:12:25;;;;;;;9.73;5.20;;;;;;;33.68;58.94;100570.31;5058163;27;66051;-37
2022/12/05 09:14:57;;;;;;;13.40;5.35;;;;;;;33.69;59.02;100576.63;5050363;27;69773;-36
2022/12/05 09:17:29;;;;;;;8.65;4.45;;;;;;;33.72;58.91;100574.22;5070904;27;65559;-38
2022/12/05 09:20:00;;;;;;;11.73;5.40;;;;;;;33.64;58.75;100571.91;5075052;27;69966;-38
2022/12/05 09:22:33;;;;;;;11.25;5.20;;;;;;;33.73;58.49;100584.00;5066170;27;65838;-35
2022/12/05 09:25:04;;;;;;;11.38;5.30;;;;;;;33.79;58.75;100584.91;5077260;27;70039;-35
2022/12/05 09:27:36;;;;;;;10.10;5.13;;;;;;;33.77;58.94;100587.91;5075751;27;66261;-35
2022/12/05 09:30:09;;;;;;;17.20;5.70;;;;;;;33.68;59.12;100564.88;5083784;27;70249;-37
2022/12/05 09:32:39;;;;;;;;;;;;;;;33.59;59.64;100579.97;5082095;27;65808;-36
2022/12/05 09:35:11;;;;;;;11.20;5.55;;;;;;;33.79;59.22;100591.22;5082897;27;71124;-34
2022/12/05 09:37:42;;;;;;;14.23;5.13;;;;;;;33.80;59.05;100590.13;5079835;27;66385;-35
2022/12/05 09:40:17;;;;;;;19.10;6.17;;;;;;;33.85;59.09;100591.28;5077755;27;71347;-37
2022/12/05 09:43:31;;;;;;;15.50;5.20;;;;;;;33.58;61.12;100591.94;5087357;27;66925;-35
2022/12/05 09:46:28;;;;;;;11.27;5.70;;;;;;;33.36;62.45;100579.00;5076883;27;70426;-36
2022/12/05 09:49:07;;;;;;;11.60;5.20;;;;;;;33.34;63.06;100581.13;5079967;27;65149;-34
2022/12/05 09:51:44;;;;;;;11.68;5.30;;;;;;;33.27;63.65;100583.19;5077894;27;69329;-34
2022/12/05 09:54:25;;;;;;;12.82;5.05;;;;;;;32.72;64.36;100513.09;5087958;27;65371;-38
2022/12/05 09:56:57;;;;;;;7.13;4.68;;;;;;;33.10;64.63;100585.88;5081436;27;69177;-35
2022/12/05 09:59:28;;;;;;;12.07;4.72;;;;;;;33.00;64.92;100568.53;5087933;27;66188;-36
2022/12/05 10:02:10;;;;;;;11.88;5.15;;;;;;;33.04;65.08;100580.56;5062686;27;69615;-36
2022/12/05 10:05:00;;;;;;;10.90;4.72;;;;;;;32.57;65.25;100524.50;5089108;27;66455;-36
2022/12/05 10:08:02;;;;;;;9.25;3.72;;;;;;;32.90;65.33;100583.56;5087770;27;69318;-36
2022/12/05 10:10:39;;;;;;;8.40;4.68;;;;;;;32.95;65.33;100593.69;5079684;27;65676;-36
2022/12/05 10:13:40;;;;;;;8.52;4.63;;;;;;;32.42;65.45;100519.53;5086820;27;69194;-35
2022/12/05 10:16:30;;;;;;;8.90;5.43;;;;;;;32.84;65.84;100587.22;5078636;27;66728;-36
2022/12/05 10:19:23;;;;;;;8.65;4.85;;;;;;;32.85;65.67;100610.63;5078568;27;70026;-34
2022/12/05 10:21:57;;;;;;;57.08;8.50;;;;;;;32.87;65.57;100610.38;5084189;27;66068;-39
2022/12/05 10:24:35;;;;;;;29.33;6.82;;;;;;;32.85;65.44;100620.66;5078901;27;70196;-35
2022/12/05 10:27:39;;;;;;;14.40;6.47;;;;;;;32.73;65.30;100617.94;5084771;27;66501;-37
2022/12/05 10:30:18;;;;;;;39.50;7.65;;;;;;;32.62;65.84;100594.34;5074518;27;70342;-34
2022/12/05 10:32:57;;;;;;;32.20;7.32;;;;;;;32.81;65.92;100646.66;5080160;27;66136;-34
2022/12/05 10:35:36;;;;;;;34.58;6.32;;;;;;;32.84;65.56;100652.41;5078569;27;70016;-35
2022/12/05 10:38:24;;;;;;;23.95;6.03;;;;;;;32.74;65.90;100646.78;5080457;27;65321;-36
2022/12/05 10:40:58;;;;;;;31.77;6.68;;;;;;;32.66;65.97;100644.44;5085451;27;69589;-35
2022/12/05 10:43:32;;;;;;;18.88;6.05;;;;;;;32.56;66.56;100633.34;5080740;27;66947;-35
2022/12/05 10:46:04;;;;;;;13.88;5.63;;;;;;;32.80;66.69;100675.69;5098115;27;69330;-36
2022/12/05 10:48:41;;;;;;;22.17;5.90;;;;;;;32.40;66.61;100613.97;5088920;27;65210;-37
2022/12/05 10:51:20;;;;;;;11.95;5.47;;;;;;;32.44;67.00;100633.31;5081225;27;69983;-35
2022/12/05 10:53:51;;;;;;;14.50;6.25;;;;;;;32.76;66.84;100693.53;5078445;27;65941;-35
2022/12/05 10:56:39;;;;;;;;;;;;;;;32.53;67.81;100698.97;5080902;27;69949;-38
2022/12/05 10:59:14;;;;;;;10.43;5.60;;;;;;;32.70;67.32;100699.91;5095029;27;66561;-34
2022/12/05 11:01:51;;;;;;;8.82;5.50;;;;;;;32.43;67.50;100659.66;5079168;27;69684;-33
2022/12/05 11:04:29;;;;;;;10.45;5.57;;;;;;;32.20;67.07;100618.91;5066398;27;66716;-35
2022/12/05 11:07:03;;;;;;;10.05;5.45;;;;;;;32.20;67.36;100618.91;5089402;27;70565;-34
2022/12/05 11:09:38;;;;;;;9.13;4.88;;;;;;;32.71;67.23;100699.69;5076521;27;66278;-36
2022/12/05 11:12:19;;;;;;;11.45;5.75;;;;;;;32.78;66.70;100696.00;5086285;27;70109;-39
2022/12/05 11:15:24;;;;;;;9.43;5.00;;;;;;;32.80;66.49;100697.44;5080638;27;66259;-38
2022/12/05 11:18:00;;;;;;;11.38;5.97;;;;;;;32.70;65.82;100670.84;5083025;27;70685;-37
2022/12/05 11:20:33;;;;;;;9.23;5.78;;;;;;;32.96;65.22;100708.63;5081185;27;66234;-35
2022/12/05 11:23:29;;;;;;;11.23;6.25;;;;;;;32.96;65.13;100722.22;5088232;27;70393;-35
2022/12/05 11:26:00;;;;;;;15.63;6.43;;;;;;;33.02;65.13;100724.03;5086006;27;66619;-37
2022/12/05 11:28:36;;;;;;;8.05;6.13;;;;;;;33.01;65.34;100725.88;5083591;27;69550;-35
2022/12/05 11:31:14;;;;;;;10.38;6.40;;;;;;;33.05;64.69;100713.50;5081036;27;65718;-37
2022/12/05 11:34:00;;;;;;;12.00;6.65;;;;;;;32.51;64.65;100639.47;5080734;27;70342;-36
2022/12/05 11:36:42;;;;;;;8.23;6.32;;;;;;;33.03;64.29;100726.50;5084148;27;66316;-36
2022/12/05 11:39:13;;;;;;;12.67;6.43;;;;;;;32.98;64.63;100720.09;5085420;27;70333;-38
2022/12/05 11:42:07;;;;;;;18.90;6.35;;;;;;;32.92;65.08;100730.84;5082677;27;65843;-35
2022/12/05 11:44:48;;;;;;;9.80;5.95;;;;;;;32.41;64.43;100629.19;5076282;27;68940;-38
2022/12/05 11:47:44;;;;;;;12.20;6.65;;;;;;;32.98;64.53;100739.09;5074772;27;67364;-34
2022/12/05 11:50:36;;;;;;;10.48;6.38;;;;;;;32.97;64.58;100749.16;5074360;27;70094;-36
2022/12/05 11:53:25;;;;;;;;;;;;;;;32.76;65.28;100747.84;5075885;27;66841;-37
2022/12/05 11:56:28;;;;;;;8.70;5.70;;;;;;;32.40;64.66;100679.13;5076042;27;69571;-39
2022/12/05 11:59:31;;;;;;;13.00;7.07;;;;;;;32.89;64.60;100763.09;5089627;27;66295;-38
2022/12/05 12:02:05;;;;;;;8.35;6.30;;;;;;;33.03;64.36;100763.72;5067194;27;69699;-35
2022/12/05 12:04:48;;;;;;;9.43;6.90;;;;;;;33.01;64.39;100761.22;5056463;27;66148;-38
2022/12/05 12:07:44;;;;;;;13.75;6.68;;;;;;;32.98;64.23;100755.41;5073773;27;70673;-39
2022/12/05 12:10:25;;;;;;;10.38;6.20;;;;;;;32.96;64.53;100757.53;5064832;27;66075;-36
2022/12/05 12:13:08;;;;;;;8.48;6.50;;;;;;;32.52;64.41;100681.88;5060340;27;69349;-37
2022/12/05 12:15:52;;;;;;;8.85;6.50;;;;;;;32.04;64.17;100610.44;5071581;27;66273;-37
2022/12/05 12:19:07;;;;;;;13.02;7.43;;;;;;;32.83;64.75;100764.88;5081362;27;69582;-36